Time;durP1;ratioP1;P1;durP2;ratioP2;P2;SDS_P1;SDS_P2;PMS_P1;PMS_P2;Temp;Humidity;BMP_temperature;BMP_pressure;BME280_temperature;BME280_humidity;BME280_pressure;Samples;Min_cycle;Max_cycle;Signal;HPM_P1;HPM_P2
2022/09/23 00:02:38;;;;;;;3.90;1.38;;;;;;;;;;10468128;28;20064;-76
2022/09/23 00:07:41;;;;;;;2.35;1.48;;;;;;;;;;10466613;28;20121;-76
2022/09/23 00:12:44;;;;;;;1.60;1.20;;;;;;;;;;10477301;28;20040;-76
2022/09/23 00:17:49;;;;;;;1.08;0.90;;;;;;;;;;10482892;28;20859;-76
2022/09/23 00:22:53;;;;;;;2.13;1.08;;;;;;;;;;10483692;28;20124;-77
2022/09/23 00:27:57;;;;;;;3.92;1.30;;;;;;;;;;10457723;28;20066;-76
2022/09/23 00:33:02;;;;;;;1.80;1.15;;;;;;;;;;10456807;28;20447;-76
2022/09/23 00:38:05;;;;;;;2.20;1.27;;;;;;;;;;10493831;28;20036;-76
2022/09/23 00:43:11;;;;;;;1.08;0.95;;;;;;;;;;10465473;28;20520;-76
2022/09/23 00:48:18;;;;;;;1.93;1.27;;;;;;;;;;10469322;28;20049;-77
2022/09/23 00:53:25;;;;;;;3.67;1.50;;;;;;;;;;10482327;28;20067;-77
2022/09/23 00:58:31;;;;;;;2.38;1.30;;;;;;;;;;10447585;28;20041;-76
2022/09/23 01:03:36;;;;;;;2.50;1.50;;;;;;;;;;10472106;28;20658;-76
2022/09/23 01:08:40;;;;;;;2.13;1.02;;;;;;;;;;10465162;28;20064;-76
2022/09/23 01:13:52;;;;;;;2.25;0.90;;;;;;;;;;10481169;28;20052;-77
2022/09/23 01:19:05;;;;;;;1.50;1.00;;;;;;;;;;10442870;28;20051;-77
2022/09/23 01:24:34;;;;;;;1.83;1.30;;;;;;;;;;10455357;28;20401;-77
2022/09/23 01:30:06;;;;;;;1.30;1.08;;;;;;;;;;10429970;28;20740;-77
2022/09/23 01:35:19;;;;;;;3.20;1.65;;;;;;;;;;10438754;28;20424;-77
2022/09/23 01:40:30;;;;;;;2.20;1.58;;;;;;;;;;10437931;28;20037;-77
2022/09/23 01:45:37;;;;;;;2.15;1.35;;;;;;;;;;10437522;28;20691;-77
2022/09/23 01:50:56;;;;;;;1.42;1.20;;;;;;;;;;10420450;28;20060;-77
2022/09/23 01:56:03;;;;;;;2.55;1.10;;;;;;;;;;10419638;28;20029;-77
2022/09/23 02:01:08;;;;;;;1.15;0.80;;;;;;;;;;10437407;28;20045;-76
2022/09/23 02:06:17;;;;;;;1.38;0.95;;;;;;;;;;10437863;28;20041;-77
2022/09/23 02:11:20;;;;;;;2.80;1.20;;;;;;;;;;10436821;28;20402;-77
2022/09/23 02:16:31;;;;;;;1.17;0.80;;;;;;;;;;10436989;28;20148;-77
2022/09/23 02:21:46;;;;;;;1.90;1.27;;;;;;;;;;10436126;28;20049;-77
2022/09/23 02:26:53;;;;;;;0.98;0.80;;;;;;;;;;10436357;28;20049;-77
2022/09/23 02:32:00;;;;;;;1.05;0.82;;;;;;;;;;10436829;28;20049;-77
2022/09/23 02:37:15;;;;;;;1.50;0.90;;;;;;;;;;10430931;28;20053;-77
2022/09/23 02:42:22;;;;;;;1.75;0.60;;;;;;;;;;10492118;28;20094;-77
2022/09/23 02:47:31;;;;;;;1.30;0.98;;;;;;;;;;10484076;28;20064;-77
2022/09/23 02:52:37;;;;;;;1.40;0.85;;;;;;;;;;10437956;28;20057;-77
2022/09/23 02:57:40;;;;;;;1.77;0.70;;;;;;;;;;10443023;28;20056;-77
2022/09/23 03:03:06;;;;;;;2.13;0.80;;;;;;;;;;10434970;28;20341;-77
2022/09/23 03:08:29;;;;;;;1.87;1.00;;;;;;;;;;10473510;28;20036;-77
2022/09/23 03:13:42;;;;;;;0.80;0.80;;;;;;;;;;10459965;28;20090;-77
2022/09/23 03:18:51;;;;;;;0.75;0.73;;;;;;;;;;10467480;28;20048;-77
2022/09/23 03:24:00;;;;;;;1.15;1.05;;;;;;;;;;10463163;28;20057;-77
2022/09/23 03:29:07;;;;;;;0.60;0.60;;;;;;;;;;10435055;28;20111;-77
2022/09/23 03:34:15;;;;;;;1.45;0.90;;;;;;;;;;10448354;28;20036;-77
2022/09/23 03:39:28;;;;;;;1.48;0.90;;;;;;;;;;10461423;28;20045;-77
2022/09/23 03:44:37;;;;;;;1.08;0.73;;;;;;;;;;10475856;28;20037;-77
2022/09/23 03:49:43;;;;;;;1.40;1.08;;;;;;;;;;10475682;28;20060;-77
2022/09/23 03:54:48;;;;;;;1.07;0.83;;;;;;;;;;10476776;28;20540;-77
2022/09/23 03:59:52;;;;;;;1.10;0.93;;;;;;;;;;10474615;28;20174;-77
2022/09/23 04:04:56;;;;;;;1.65;0.95;;;;;;;;;;10469416;28;20825;-77
2022/09/23 04:10:00;;;;;;;2.45;1.20;;;;;;;;;;10475900;28;20424;-77
2022/09/23 04:15:04;;;;;;;1.20;1.00;;;;;;;;;;10468474;28;20057;-77
2022/09/23 04:20:08;;;;;;;2.28;1.10;;;;;;;;;;10458143;28;20412;-78
2022/09/23 04:25:13;;;;;;;2.45;0.98;;;;;;;;;;10477961;28;20033;-78
2022/09/23 04:30:17;;;;;;;0.85;0.73;;;;;;;;;;10491131;28;20396;-79
2022/09/23 04:35:20;;;;;;;2.15;0.80;;;;;;;;;;10475065;28;20040;-78
2022/09/23 04:40:25;;;;;;;2.58;0.90;;;;;;;;;;10474413;28;20059;-78
2022/09/23 04:45:29;;;;;;;1.00;0.90;;;;;;;;;;10471073;28;20116;-78
2022/09/23 04:50:33;;;;;;;1.83;1.20;;;;;;;;;;10491149;28;20105;-78
2022/09/23 04:55:38;;;;;;;3.28;1.52;;;;;;;;;;10430123;28;20435;-76
2022/09/23 05:00:41;;;;;;;1.70;1.40;;;;;;;;;;10459404;28;20047;-77
2022/09/23 05:05:44;;;;;;;1.90;1.63;;;;;;;;;;10483309;28;20056;-77
2022/09/23 05:10:49;;;;;;;1.90;1.30;;;;;;;;;;10472586;28;20048;-77
2022/09/23 05:15:58;;;;;;;1.23;1.13;;;;;;;;;;10448064;28;20052;-77
2022/09/23 05:21:02;;;;;;;1.00;0.77;;;;;;;;;;10461579;28;20055;-77
2022/09/23 05:26:09;;;;;;;3.17;1.33;;;;;;;;;;10479462;28;20105;-77
2022/09/23 05:31:14;;;;;;;1.98;1.30;;;;;;;;;;10468882;28;20045;-75
2022/09/23 05:36:22;;;;;;;1.45;1.20;;;;;;;;;;10476654;28;20041;-79
2022/09/23 05:41:27;;;;;;;1.60;1.20;;;;;;;;;;10468727;28;20037;-78
2022/09/23 05:46:31;;;;;;;2.05;1.20;;;;;;;;;;10447645;28;20413;-77
2022/09/23 05:51:35;;;;;;;4.85;1.50;;;;;;;;;;10448184;28;20167;-78
2022/09/23 05:56:40;;;;;;;1.85;1.30;;;;;;;;;;10460008;28;20032;-77
2022/09/23 06:01:44;;;;;;;1.33;0.98;;;;;;;;;;10446761;28;20053;-78
2022/09/23 06:06:47;;;;;;;1.40;1.30;;;;;;;;;;10463854;28;20037;-77
2022/09/23 06:11:52;;;;;;;3.50;1.30;;;;;;;;;;10471664;28;20044;-78
2022/09/23 06:16:58;;;;;;;4.38;1.70;;;;;;;;;;10456584;28;20052;-77
2022/09/23 06:22:01;;;;;;;1.10;1.00;;;;;;;;;;10477220;28;20063;-78
2022/09/23 06:27:06;;;;;;;1.23;1.10;;;;;;;;;;10477609;28;20289;-77
2022/09/23 06:32:09;;;;;;;4.97;1.83;;;;;;;;;;10463207;28;20500;-78
2022/09/23 06:37:13;;;;;;;2.08;1.55;;;;;;;;;;10464891;28;20043;-79
2022/09/23 06:42:21;;;;;;;2.80;1.50;;;;;;;;;;10469919;28;20456;-79
2022/09/23 06:47:25;;;;;;;2.80;1.52;;;;;;;;;;10469858;28;20394;-77
2022/09/23 06:52:28;;;;;;;1.58;1.23;;;;;;;;;;10471224;28;20093;-79
2022/09/23 06:57:34;;;;;;;1.63;1.30;;;;;;;;;;10448240;28;20673;-76
2022/09/23 07:02:40;;;;;;;;;;;;;;;;;;10459907;28;20045;-77
2022/09/23 07:07:44;;;;;;;1.88;1.48;;;;;;;;;;10463991;28;20385;-75
2022/09/23 07:12:49;;;;;;;1.75;1.33;;;;;;;;;;10494851;28;20431;-75
2022/09/23 07:17:52;;;;;;;1.25;1.15;;;;;;;;;;10476069;28;20052;-78
2022/09/23 07:22:55;;;;;;;2.53;1.35;;;;;;;;;;10489954;28;20183;-78
2022/09/23 07:28:00;;;;;;;1.08;0.88;;;;;;;;;;10487264;28;20044;-76
2022/09/23 07:33:04;;;;;;;3.15;1.65;;;;;;;;;;10463856;28;20040;-76
2022/09/23 07:38:15;;;;;;;2.85;1.58;;;;;;;;;;10456903;28;20548;-78
2022/09/23 07:43:19;;;;;;;2.47;2.00;;;;;;;;;;10464762;28;20622;-78
2022/09/23 07:48:23;;;;;;;3.33;2.22;;;;;;;;;;10443322;28;20045;-79
2022/09/23 07:53:27;;;;;;;3.05;1.60;;;;;;;;;;10451576;28;20048;-77
2022/09/23 07:58:32;;;;;;;2.47;1.60;;;;;;;;;;10461007;28;20052;-78
2022/09/23 08:03:36;;;;;;;7.90;1.60;;;;;;;;;;10434242;28;20393;-76
2022/09/23 08:08:42;;;;;;;2.65;1.90;;;;;;;;;;10484022;28;20051;-78
2022/09/23 08:13:47;;;;;;;3.38;1.55;;;;;;;;;;10471091;28;20045;-78
2022/09/23 08:18:50;;;;;;;3.67;1.17;;;;;;;;;;10474649;28;20059;-78
2022/09/23 08:23:53;;;;;;;2.28;1.10;;;;;;;;;;10476347;28;20053;-77
2022/09/23 08:28:58;;;;;;;2.20;1.35;;;;;;;;;;10476076;28;20574;-77
2022/09/23 08:34:01;;;;;;;2.17;1.48;;;;;;;;;;10449629;28;20551;-78
2022/09/23 08:39:06;;;;;;;2.70;1.80;;;;;;;;;;10452515;28;20425;-78
2022/09/23 08:44:16;;;;;;;4.07;2.30;;;;;;;;;;10479569;28;20712;-79
2022/09/23 08:49:25;;;;;;;2.50;1.80;;;;;;;;;;10475378;28;20114;-78
2022/09/23 08:54:31;;;;;;;3.38;1.80;;;;;;;;;;10459437;28;20044;-78
2022/09/23 08:59:42;;;;;;;2.60;1.83;;;;;;;;;;10457507;28;20049;-80
2022/09/23 09:04:49;;;;;;;1.23;1.08;;;;;;;;;;10440753;28;20351;-79
2022/09/23 09:09:56;;;;;;;1.25;0.98;;;;;;;;;;10464374;28;20075;-78
2022/09/23 09:15:06;;;;;;;1.58;1.45;;;;;;;;;;10480331;28;20047;-79
2022/09/23 09:20:22;;;;;;;1.83;1.50;;;;;;;;;;10459613;28;20500;-79
2022/09/23 09:25:40;;;;;;;1.50;1.20;;;;;;;;;;10477626;28;20074;-78
2022/09/23 09:30:48;;;;;;;2.53;1.77;;;;;;;;;;10448624;28;20124;-76
2022/09/23 09:36:10;;;;;;;1.38;1.02;;;;;;;;;;10460818;28;20071;-78
2022/09/23 09:41:16;;;;;;;2.70;1.30;;;;;;;;;;10475019;28;20529;-76
2022/09/23 09:46:36;;;;;;;2.33;1.13;;;;;;;;;;10441499;28;20512;-77
2022/09/23 09:51:41;;;;;;;2.20;1.30;;;;;;;;;;10430962;28;20044;-78
2022/09/23 09:56:45;;;;;;;3.20;1.45;;;;;;;;;;10464540;28;20053;-78
2022/09/23 10:02:21;;;;;;;1.88;0.98;;;;;;;;;;10451243;28;20033;-76
2022/09/23 10:07:27;;;;;;;0.80;0.80;;;;;;;;;;10469792;28;20504;-78
2022/09/23 10:12:44;;;;;;;1.75;1.40;;;;;;;;;;10479720;28;20040;-77
2022/09/23 10:17:51;;;;;;;1.45;1.30;;;;;;;;;;10455328;28;20110;-78
2022/09/23 10:22:55;;;;;;;2.55;1.25;;;;;;;;;;10469581;28;20041;-77
2022/09/23 10:27:59;;;;;;;1.67;0.90;;;;;;;;;;10476598;28;20052;-77
2022/09/23 10:33:26;;;;;;;1.95;1.35;;;;;;;;;;10452729;28;20079;-77
2022/09/23 10:38:30;;;;;;;3.42;1.45;;;;;;;;;;10461782;28;20041;-77
2022/09/23 10:49:29;;;;;;;1.85;1.38;;;;;;;;;;10469344;28;20037;-77
2022/09/23 10:54:43;;;;;;;1.77;0.93;;;;;;;;;;10476594;28;20412;-77
2022/09/23 10:59:55;;;;;;;1.50;0.77;;;;;;;;;;10477070;28;20045;-77
2022/09/23 11:05:25;;;;;;;1.63;1.20;;;;;;;;;;10460553;28;20041;-77
2022/09/23 11:10:48;;;;;;;1.67;1.02;;;;;;;;;;10450306;28;20082;-77
2022/09/23 11:16:02;;;;;;;1.20;0.80;;;;;;;;;;10457181;28;20045;-77
2022/09/23 11:21:28;;;;;;;1.42;0.80;;;;;;;;;;10476230;28;20033;-77
2022/09/23 11:26:40;;;;;;;1.27;1.05;;;;;;;;;;10469458;28;20045;-77
2022/09/23 11:31:53;;;;;;;0.40;0.40;;;;;;;;;;10453957;28;20659;-77
2022/09/23 11:37:07;;;;;;;2.50;1.02;;;;;;;;;;10467030;28;20072;-77
2022/09/23 11:42:14;;;;;;;3.47;0.82;;;;;;;;;;10460590;28;20467;-77
2022/09/23 11:47:21;;;;;;;0.85;0.70;;;;;;;;;;10442938;28;20048;-76
2022/09/23 11:52:31;;;;;;;1.40;0.98;;;;;;;;;;10474797;28;20045;-77
2022/09/23 11:57:42;;;;;;;1.10;1.00;;;;;;;;;;10475771;28;20041;-77
2022/09/23 12:03:08;;;;;;;0.40;0.40;;;;;;;;;;10477274;28;20125;-77
2022/09/23 12:08:19;;;;;;;1.15;0.80;;;;;;;;;;10470921;28;20057;-77
2022/09/23 12:13:30;;;;;;;1.23;0.60;;;;;;;;;;10473557;28;20051;-77
2022/09/23 12:18:46;;;;;;;0.50;0.50;;;;;;;;;;10475311;28;20033;-77
2022/09/23 12:24:17;;;;;;;2.60;1.00;;;;;;;;;;10475757;28;20048;-77
2022/09/23 12:29:24;;;;;;;1.52;0.77;;;;;;;;;;10476452;28;20040;-78
2022/09/23 12:34:28;;;;;;;;;;;;;;;;;;10468911;28;20056;-77
2022/09/23 12:39:36;;;;;;;0.80;0.70;;;;;;;;;;10463467;28;20278;-77
2022/09/23 12:44:42;;;;;;;3.22;0.65;;;;;;;;;;10433182;28;20037;-77
2022/09/23 12:49:45;;;;;;;1.17;0.90;;;;;;;;;;10449512;28;20652;-77
2022/09/23 12:54:51;;;;;;;0.50;0.50;;;;;;;;;;10436870;28;20534;-77
2022/09/23 12:59:57;;;;;;;0.90;0.50;;;;;;;;;;10448224;28;20504;-77
2022/09/23 13:10:39;;;;;;;1.00;0.80;;;;;;;;;;10482858;28;19966;-77
2022/09/23 13:15:42;;;;;;;1.10;0.35;;;;;;;;;;10471893;28;20057;-77
2022/09/23 13:20:47;;;;;;;0.40;0.40;;;;;;;;;;10481658;28;20412;-77
2022/09/23 13:25:54;;;;;;;0.85;0.30;;;;;;;;;;10481072;28;20045;-78
2022/09/23 13:30:58;;;;;;;1.55;0.70;;;;;;;;;;10471031;28;20044;-77
2022/09/23 13:36:03;;;;;;;0.80;0.70;;;;;;;;;;10497539;28;20048;-77
2022/09/23 13:41:14;;;;;;;1.15;1.05;;;;;;;;;;10481549;28;20056;-77
2022/09/23 13:46:20;;;;;;;0.68;0.68;;;;;;;;;;10481164;28;20033;-77
2022/09/23 13:51:26;;;;;;;2.15;0.85;;;;;;;;;;10471945;28;20428;-77
2022/09/23 13:56:34;;;;;;;0.77;0.50;;;;;;;;;;10479492;28;20102;-77
2022/09/23 14:01:37;;;;;;;1.23;0.60;;;;;;;;;;10468502;28;20048;-78
2022/09/23 14:06:41;;;;;;;1.15;0.60;;;;;;;;;;10479152;28;20056;-77
2022/09/23 14:11:46;;;;;;;0.82;0.60;;;;;;;;;;10479258;28;20447;-77
2022/09/23 14:16:51;;;;;;;0.40;0.40;;;;;;;;;;10473381;28;20045;-77
2022/09/23 14:21:56;;;;;;;1.15;0.30;;;;;;;;;;10433733;28;20041;-77
2022/09/23 14:27:04;;;;;;;0.47;0.30;;;;;;;;;;10438266;28;20036;-77
2022/09/23 14:32:13;;;;;;;0.52;0.35;;;;;;;;;;10446361;28;20048;-77
2022/09/23 14:42:50;;;;;;;0.88;0.30;;;;;;;;;;10470376;28;20055;-77
2022/09/23 14:47:58;;;;;;;0.28;0.28;;;;;;;;;;10477961;28;20131;-77
2022/09/23 14:53:02;;;;;;;0.75;0.35;;;;;;;;;;10478297;28;20040;-77
2022/09/23 14:58:15;;;;;;;0.57;0.30;;;;;;;;;;10474412;28;20509;-77
2022/09/23 15:03:20;;;;;;;1.35;0.50;;;;;;;;;;10453760;28;20048;-77
2022/09/23 15:08:26;;;;;;;1.38;0.30;;;;;;;;;;10458335;28;20048;-76
2022/09/23 15:13:36;;;;;;;0.43;0.20;;;;;;;;;;10453543;28;20084;-77
2022/09/23 15:18:43;;;;;;;0.40;0.30;;;;;;;;;;10437464;28;20053;-77
2022/09/23 15:23:48;;;;;;;1.52;0.40;;;;;;;;;;10467602;28;20056;-77
2022/09/23 15:28:57;;;;;;;2.15;0.50;;;;;;;;;;10472488;28;20053;-77
2022/09/23 15:34:00;;;;;;;1.65;0.70;;;;;;;;;;10474910;28;20044;-77
2022/09/23 15:39:07;;;;;;;0.57;0.40;;;;;;;;;;10461695;28;20036;-77
2022/09/23 15:44:15;;;;;;;0.70;0.52;;;;;;;;;;10486986;28;20033;-77
2022/09/23 15:49:27;;;;;;;0.28;0.22;;;;;;;;;;10480114;28;20073;-77
2022/09/23 15:54:32;;;;;;;0.50;0.40;;;;;;;;;;10478428;28;20048;-76
2022/09/23 15:59:37;;;;;;;0.85;0.52;;;;;;;;;;10478915;28;20443;-77
2022/09/23 16:04:40;;;;;;;0.50;0.50;;;;;;;;;;10485508;28;20052;-77
2022/09/23 16:09:43;;;;;;;0.40;0.40;;;;;;;;;;10473739;28;20048;-77
2022/09/23 16:14:48;;;;;;;0.50;0.40;;;;;;;;;;10468942;28;20044;-77
2022/09/23 16:19:51;;;;;;;0.32;0.32;;;;;;;;;;10468218;28;20051;-77
2022/09/23 16:24:54;;;;;;;1.92;0.65;;;;;;;;;;10467129;28;20061;-77
2022/09/23 16:29:59;;;;;;;0.88;0.45;;;;;;;;;;10474700;28;20123;-76
2022/09/23 16:35:02;;;;;;;0.40;0.40;;;;;;;;;;10481656;28;20518;-76
2022/09/23 16:40:08;;;;;;;0.40;0.40;;;;;;;;;;10474130;28;20040;-77
2022/09/23 16:45:16;;;;;;;0.73;0.40;;;;;;;;;;10483904;28;20063;-77
2022/09/23 16:50:23;;;;;;;1.05;0.50;;;;;;;;;;10464911;28;20032;-76
2022/09/23 16:55:26;;;;;;;0.70;0.50;;;;;;;;;;10456075;28;20045;-76
2022/09/23 17:05:53;;;;;;;0.43;0.43;;;;;;;;;;10451596;28;20143;-77
2022/09/23 17:10:58;;;;;;;0.80;0.40;;;;;;;;;;10464333;28;20041;-76
2022/09/23 17:16:04;;;;;;;0.63;0.45;;;;;;;;;;10456986;28;20064;-76
2022/09/23 17:21:08;;;;;;;0.93;0.40;;;;;;;;;;10480908;28;20055;-77
2022/09/23 17:26:12;;;;;;;0.73;0.68;;;;;;;;;;10446166;28;20037;-77
2022/09/23 17:31:16;;;;;;;1.77;0.80;;;;;;;;;;10480447;28;20049;-77
2022/09/23 17:36:20;;;;;;;1.83;1.20;;;;;;;;;;10447973;28;20082;-76
2022/09/23 17:41:24;;;;;;;1.27;1.00;;;;;;;;;;10479696;28;20049;-77
2022/09/23 17:46:28;;;;;;;1.98;1.00;;;;;;;;;;10478714;28;20056;-77
2022/09/23 17:51:32;;;;;;;1.75;1.40;;;;;;;;;;10472227;28;20040;-76
2022/09/23 17:56:35;;;;;;;2.30;1.58;;;;;;;;;;10478560;28;20049;-76
2022/09/23 18:01:39;;;;;;;4.70;1.70;;;;;;;;;;10462625;28;20040;-76
2022/09/23 18:06:43;;;;;;;2.00;1.50;;;;;;;;;;10460253;28;20044;-77
2022/09/23 18:11:48;;;;;;;2.00;1.17;;;;;;;;;;10470645;28;20040;-77
2022/09/23 18:16:53;;;;;;;2.40;1.83;;;;;;;;;;10480266;28;20049;-77
2022/09/23 18:21:57;;;;;;;4.45;2.00;;;;;;;;;;10478915;28;20037;-77
2022/09/23 18:27:00;;;;;;;3.92;2.53;;;;;;;;;;10453008;28;20048;-77
2022/09/23 18:32:05;;;;;;;2.63;2.30;;;;;;;;;;10470527;28;20059;-77
2022/09/23 18:37:08;;;;;;;4.80;2.45;;;;;;;;;;10470493;28;20044;-77
2022/09/23 18:42:17;;;;;;;3.10;2.17;;;;;;;;;;10477359;28;20106;-77
2022/09/23 18:52:39;;;;;;;3.15;1.85;;;;;;;;;;10463205;28;20087;-77
2022/09/23 18:57:42;;;;;;;2.72;1.98;;;;;;;;;;10468472;28;20093;-77
2022/09/23 19:02:47;;;;;;;2.55;1.98;;;;;;;;;;10456533;28;20095;-78
2022/09/23 19:07:50;;;;;;;2.85;1.85;;;;;;;;;;10428872;28;20049;-77
2022/09/23 19:12:54;;;;;;;3.33;2.15;;;;;;;;;;10417672;28;20398;-77
2022/09/23 19:17:58;;;;;;;2.40;1.95;;;;;;;;;;10436600;28;20044;-79
2022/09/23 19:23:01;;;;;;;2.55;1.95;;;;;;;;;;10435177;28;20045;-77
2022/09/23 19:28:07;;;;;;;2.88;2.10;;;;;;;;;;10436026;28;20044;-77
2022/09/23 19:33:11;;;;;;;2.15;1.85;;;;;;;;;;10456922;28;20041;-77
2022/09/23 19:38:18;;;;;;;2.80;2.10;;;;;;;;;;10456995;28;20041;-77
2022/09/23 19:43:23;;;;;;;6.85;1.98;;;;;;;;;;10469516;28;20040;-77
2022/09/23 19:48:28;;;;;;;6.18;3.10;;;;;;;;;;10469345;28;20471;-77
2022/09/23 19:53:32;;;;;;;4.03;2.25;;;;;;;;;;10478013;28;20040;-77
2022/09/23 19:58:35;;;;;;;6.90;2.67;;;;;;;;;;10476255;28;20075;-77
2022/09/23 20:03:39;;;;;;;5.72;2.53;;;;;;;;;;10446145;28;20045;-77
2022/09/23 20:08:43;;;;;;;5.00;2.63;;;;;;;;;;10462461;28;20051;-77
2022/09/23 20:13:47;;;;;;;4.05;2.35;;;;;;;;;;10484312;28;20048;-77
2022/09/23 20:18:54;;;;;;;4.13;2.53;;;;;;;;;;10475933;28;20080;-77
2022/09/23 20:23:57;;;;;;;7.07;2.85;;;;;;;;;;10483551;28;20036;-77
2022/09/23 20:29:01;;;;;;;8.90;5.38;;;;;;;;;;10477324;28;20048;-79
2022/09/23 20:34:05;;;;;;;5.30;3.47;;;;;;;;;;10477436;28;20036;-77
2022/09/23 20:39:09;;;;;;;4.60;3.00;;;;;;;;;;10462407;28;20040;-77
2022/09/23 20:44:13;;;;;;;3.53;1.90;;;;;;;;;;10464776;28;20696;-76
2022/09/23 20:49:18;;;;;;;4.15;1.98;;;;;;;;;;10469644;28;20049;-78
2022/09/23 20:54:22;;;;;;;3.80;1.80;;;;;;;;;;10440422;28;20408;-77
2022/09/23 20:59:26;;;;;;;2.00;1.60;;;;;;;;;;10466101;28;20044;-76
2022/09/23 21:04:31;;;;;;;2.25;1.60;;;;;;;;;;10467214;28;20091;-77
2022/09/23 21:09:34;;;;;;;2.60;1.42;;;;;;;;;;10472792;28;20078;-76
2022/09/23 21:14:38;;;;;;;2.95;1.15;;;;;;;;;;10449116;28;20037;-76
2022/09/23 21:19:42;;;;;;;2.78;1.38;;;;;;;;;;10480002;28;20067;-77
2022/09/23 21:24:48;;;;;;;6.43;1.42;;;;;;;;;;10473094;28;20041;-76
2022/09/23 21:30:12;;;;;;;1.30;1.00;;;;;;;;;;10473804;28;20041;-77
2022/09/23 21:35:18;;;;;;;3.80;1.60;;;;;;;;;;10478791;28;20519;-77
2022/09/23 21:45:41;;;;;;;3.15;1.80;;;;;;;;;;10478022;28;20405;-76
2022/09/23 21:50:54;;;;;;;2.53;1.30;;;;;;;;;;10466075;28;20119;-77
2022/09/23 21:56:03;;;;;;;4.30;1.70;;;;;;;;;;10480721;28;20064;-76
2022/09/23 22:01:11;;;;;;;3.15;1.38;;;;;;;;;;10453643;28;20063;-76
2022/09/23 22:06:19;;;;;;;3.50;1.63;;;;;;;;;;10470760;28;20034;-77
2022/09/23 22:16:46;;;;;;;3.80;2.10;;;;;;;;;;10468970;28;20114;-76
2022/09/23 22:21:51;;;;;;;3.30;2.13;;;;;;;;;;10473070;28;20113;-76
2022/09/23 22:26:55;;;;;;;3.17;2.13;;;;;;;;;;10455671;28;20045;-78
2022/09/23 22:37:24;;;;;;;2.45;1.30;;;;;;;;;;10437183;28;20682;-76
2022/09/23 22:42:27;;;;;;;1.70;1.13;;;;;;;;;;10471153;28;20044;-76
2022/09/23 22:47:35;;;;;;;1.55;1.15;;;;;;;;;;10461941;28;20048;-77
2022/09/23 22:52:40;;;;;;;2.00;1.33;;;;;;;;;;10463059;28;20041;-77
2022/09/23 22:57:43;;;;;;;1.15;1.00;;;;;;;;;;10454233;28;20041;-78
2022/09/23 23:02:46;;;;;;;4.32;1.27;;;;;;;;;;10480699;28;20452;-77
2022/09/23 23:07:51;;;;;;;3.50;1.50;;;;;;;;;;10479555;28;20040;-75
2022/09/23 23:12:54;;;;;;;1.50;1.20;;;;;;;;;;10484253;28;20098;-78
2022/09/23 23:17:58;;;;;;;5.70;1.38;;;;;;;;;;10471152;28;20091;-77
2022/09/23 23:23:02;;;;;;;1.95;1.40;;;;;;;;;;10477240;28;20032;-77
2022/09/23 23:28:05;;;;;;;3.70;1.17;;;;;;;;;;10451654;28;20067;-77
2022/09/23 23:33:09;;;;;;;1.42;1.20;;;;;;;;;;10445674;28;20045;-77
2022/09/23 23:38:13;;;;;;;1.27;0.90;;;;;;;;;;10464221;28;20409;-78
2022/09/23 23:43:17;;;;;;;0.90;0.63;;;;;;;;;;10458055;28;20044;-77
2022/09/23 23:48:21;;;;;;;0.90;0.80;;;;;;;;;;10475696;28;20478;-78
2022/09/23 23:53:29;;;;;;;1.40;0.90;;;;;;;;;;10475974;28;20044;-78
2022/09/23 23:58:32;;;;;;;1.52;0.93;;;;;;;;;;10466575;28;20044;-77
